createdAt,value
2022-12-20T00:01:31.369Z,38.25
2022-12-20T00:07:39.462Z,39.10
2022-12-20T00:13:49.931Z,39.92
2022-12-20T00:20:11.556Z,41.55
2022-12-20T00:26:22.571Z,39.58
2022-12-20T00:32:29.559Z,38.75
2022-12-20T00:38:50.389Z,36.78
2022-12-20T00:45:07.532Z,35.72
2022-12-20T00:51:15.633Z,36.33
2022-12-20T00:57:17.810Z,38.72
2022-12-20T01:03:20.232Z,38.58
2022-12-20T01:09:22.173Z,35.75
2022-12-20T01:15:24.081Z,36.20
2022-12-20T01:21:27.383Z,37.97
2022-12-20T01:27:29.389Z,36.92
2022-12-20T01:33:31.282Z,37.10
2022-12-20T01:39:33.118Z,37.05
2022-12-20T01:45:35.184Z,33.47
2022-12-20T01:51:40.818Z,38.70
2022-12-20T01:58:04.931Z,34.03
2022-12-20T02:04:07.445Z,34.22
2022-12-20T02:10:11.781Z,36.67
2022-12-20T02:16:22.032Z,33.47
2022-12-20T02:22:48.516Z,34.35
2022-12-20T02:29:09.645Z,34.45
2022-12-20T02:35:15.052Z,32.78
2022-12-20T02:41:32.447Z,35.83
2022-12-20T02:47:41.591Z,33.38
2022-12-20T02:53:43.837Z,37.25
2022-12-20T02:59:56.377Z,36.05
2022-12-20T03:05:58.476Z,33.28
2022-12-20T03:12:00.746Z,32.95
2022-12-20T03:18:03.780Z,34.40
2022-12-20T03:24:06.616Z,36.17
2022-12-20T03:30:09.178Z,36.17
2022-12-20T03:36:12.953Z,34.90
2022-12-20T03:42:16.293Z,32.42
2022-12-20T03:48:18.170Z,37.13
2022-12-20T03:54:20.037Z,34.28
2022-12-20T04:00:41.130Z,36.95
2022-12-20T04:07:15.076Z,35.78
2022-12-20T04:13:20.795Z,32.33
2022-12-20T04:19:22.836Z,36.75
2022-12-20T04:25:24.941Z,36.50
2022-12-20T04:31:30.718Z,35.45
2022-12-20T04:37:32.747Z,39.63
2022-12-20T04:43:35.331Z,37.90
2022-12-20T04:49:39.187Z,36.72
2022-12-20T04:55:41.974Z,36.10
2022-12-20T05:01:44.257Z,34.28
2022-12-20T05:07:51.622Z,36.77
2022-12-20T05:13:53.757Z,35.55
2022-12-20T05:19:56.717Z,40.47
2022-12-20T05:26:17.645Z,34.42
2022-12-20T05:32:19.631Z,30.40
2022-12-20T05:38:22.843Z,37.55
2022-12-20T05:44:25.113Z,34.72
2022-12-20T05:50:31.565Z,33.97
2022-12-20T05:56:51.762Z,29.58
2022-12-20T06:02:58.936Z,34.23
2022-12-20T06:09:01.313Z,31.65
2022-12-20T06:15:20.590Z,33.53
2022-12-20T06:21:23.329Z,33.40
2022-12-20T06:27:28.073Z,34.65
2022-12-20T06:33:43.422Z,27.95
2022-12-20T06:39:46.503Z,31.63
2022-12-20T06:45:49.297Z,30.27
2022-12-20T06:51:51.398Z,33.72
2022-12-20T06:57:58.119Z,32.90
2022-12-20T07:04:01.146Z,31.17
2022-12-20T07:10:03.165Z,32.80
2022-12-20T07:16:06.093Z,36.05
2022-12-20T07:22:08.079Z,28.15
2022-12-20T07:28:09.899Z,28.00
2022-12-20T07:34:11.978Z,32.15
2022-12-20T07:40:14.869Z,31.40
2022-12-20T07:46:17.275Z,29.23
2022-12-20T07:52:24.754Z,31.23
2022-12-20T07:58:27.507Z,30.23
2022-12-20T08:04:30.983Z,34.35
2022-12-20T08:10:32.979Z,36.42
2022-12-20T08:16:35.116Z,29.23
2022-12-20T08:22:37.013Z,27.65
2022-12-20T08:28:39.019Z,29.83
2022-12-20T08:34:40.841Z,28.20
2022-12-20T08:40:42.699Z,27.88
2022-12-20T08:46:44.655Z,31.50
2022-12-20T08:52:46.557Z,28.40
2022-12-20T08:58:49.025Z,27.58
2022-12-20T09:04:50.926Z,23.50
2022-12-20T09:10:53.322Z,26.70
2022-12-20T09:16:55.260Z,24.75
2022-12-20T09:22:59.799Z,23.17
2022-12-20T09:29:05.196Z,22.23
2022-12-20T09:35:07.329Z,19.95
2022-12-20T09:41:37.294Z,26.60
2022-12-20T09:47:39.352Z,21.73
2022-12-20T09:53:59.633Z,21.70
2022-12-20T10:00:01.564Z,17.88
2022-12-20T10:06:35.632Z,18.40
2022-12-20T10:13:01.667Z,20.77
2022-12-20T10:19:30.454Z,17.70
2022-12-20T10:25:33.976Z,17.77
2022-12-20T10:31:36.550Z,16.75
2022-12-20T10:37:41.390Z,16.75
2022-12-20T10:43:50.257Z,15.13
2022-12-20T10:49:52.080Z,16.15
2022-12-20T10:55:55.133Z,19.25
2022-12-20T11:01:57.100Z,16.15
2022-12-20T11:14:38.063Z,15.05
2022-12-20T11:20:53.470Z,16.63
2022-12-20T11:27:15.235Z,13.70
2022-12-20T11:33:23.397Z,14.25
2022-12-20T11:39:42.486Z,19.35
2022-12-20T11:46:17.023Z,11.65
2022-12-20T11:52:41.400Z,15.05
2022-12-20T11:58:55.871Z,16.35
2022-12-20T12:05:03.135Z,15.35
2022-12-20T12:11:40.001Z,13.40
2022-12-20T12:17:44.500Z,13.77
2022-12-20T12:24:05.826Z,13.77
2022-12-20T12:30:13.641Z,13.80
2022-12-20T12:43:00.668Z,12.07
2022-12-20T12:49:17.655Z,13.55
2022-12-20T12:55:47.203Z,11.43
2022-12-20T13:02:00.598Z,11.45
2022-12-20T13:08:03.149Z,12.90
2022-12-20T13:14:27.244Z,12.85
2022-12-20T13:20:32.094Z,12.30
2022-12-20T13:26:53.012Z,13.73
2022-12-20T13:33:02.863Z,12.48
2022-12-20T13:39:23.124Z,10.80
2022-12-20T13:45:26.214Z,12.98
2022-12-20T13:51:28.765Z,13.25
2022-12-20T13:57:42.694Z,14.02
2022-12-20T14:03:47.959Z,15.18
2022-12-20T14:09:57.176Z,16.73
2022-12-20T14:16:10.556Z,13.52
2022-12-20T14:22:12.726Z,15.15
2022-12-20T14:28:47.330Z,14.70
2022-12-20T14:34:49.253Z,12.75
2022-12-20T14:40:54.131Z,15.70
2022-12-20T14:47:15.503Z,16.98
2022-12-20T14:53:25.131Z,13.85
2022-12-20T14:59:29.457Z,17.33
2022-12-20T15:05:35.111Z,15.80
2022-12-20T15:11:38.080Z,13.80
2022-12-20T15:17:39.831Z,18.75
2022-12-20T15:23:48.466Z,15.77
2022-12-20T15:29:50.316Z,14.40
2022-12-20T15:35:52.979Z,15.10
2022-12-20T15:41:54.803Z,15.10
2022-12-20T15:47:56.530Z,15.23
2022-12-20T15:54:00.430Z,18.08
2022-12-20T16:00:03.915Z,14.80
2022-12-20T16:06:14.924Z,16.45
2022-12-20T16:12:21.377Z,16.35
2022-12-20T16:18:23.237Z,16.80
2022-12-20T16:24:25.059Z,15.25
2022-12-20T16:30:27.615Z,13.57
2022-12-20T16:36:30.025Z,15.40
2022-12-20T16:42:31.854Z,15.07
2022-12-20T16:48:33.814Z,16.02
2022-12-20T16:54:36.353Z,17.00
2022-12-20T17:00:38.328Z,18.90
2022-12-20T17:06:40.344Z,16.98
2022-12-20T17:12:42.092Z,17.20
2022-12-20T17:18:46.260Z,15.50
2022-12-20T17:24:48.062Z,17.08
2022-12-20T17:30:50.530Z,15.82
2022-12-20T17:36:55.179Z,18.98
2022-12-20T17:42:57.051Z,15.75
2022-12-20T17:48:59.051Z,16.70
2022-12-20T17:55:00.852Z,20.02
2022-12-20T18:01:03.599Z,16.95
2022-12-20T18:07:05.633Z,19.60
2022-12-20T18:13:07.381Z,16.08
2022-12-20T18:19:19.094Z,15.75
2022-12-20T18:25:20.902Z,15.98
2022-12-20T18:31:26.101Z,18.33
2022-12-20T18:37:28.800Z,18.38
2022-12-20T18:43:32.493Z,16.10
2022-12-20T18:49:34.807Z,18.55
2022-12-20T18:55:37.940Z,18.27
2022-12-20T19:01:43.035Z,19.52
2022-12-20T19:07:45.314Z,16.92
2022-12-20T19:13:47.885Z,21.27
2022-12-20T19:19:50.349Z,17.48
2022-12-20T19:25:52.223Z,16.17
2022-12-20T19:31:54.045Z,18.83
2022-12-20T19:37:57.009Z,15.88
2022-12-20T19:43:59.610Z,15.93
2022-12-20T19:50:01.403Z,19.25
2022-12-20T19:56:04.099Z,16.58
2022-12-20T20:02:06.609Z,16.38
2022-12-20T20:08:09.546Z,19.23
2022-12-20T20:14:11.334Z,18.02
2022-12-20T20:20:13.882Z,20.67
2022-12-20T20:26:18.777Z,16.95
2022-12-20T20:32:20.606Z,18.25
2022-12-20T20:38:23.222Z,20.50
2022-12-20T20:44:25.063Z,19.88
2022-12-20T20:50:26.863Z,16.45
2022-12-20T20:56:28.740Z,21.95
2022-12-20T21:02:31.865Z,20.45
2022-12-20T21:08:33.995Z,22.15
2022-12-20T21:15:10.517Z,19.50
2022-12-20T21:20:59.598Z,20.83
2022-12-20T21:27:19.965Z,18.02
2022-12-20T21:33:21.778Z,19.50
2022-12-20T21:39:24.655Z,22.88
2022-12-20T21:45:26.458Z,19.30
2022-12-20T21:51:29.425Z,19.15
2022-12-20T21:57:31.288Z,20.30
2022-12-20T22:03:33.294Z,20.25
2022-12-20T22:09:35.394Z,21.20
2022-12-20T22:15:38.268Z,23.00
2022-12-20T22:21:40.171Z,22.75
2022-12-20T22:27:41.925Z,25.60
2022-12-20T22:33:44.687Z,24.70
2022-12-20T22:39:46.658Z,27.05
2022-12-20T22:45:59.513Z,27.60
2022-12-20T22:52:07.355Z,27.13
2022-12-20T22:58:09.900Z,27.67
2022-12-20T23:04:12.373Z,30.10
2022-12-20T23:10:37.019Z,31.10
2022-12-20T23:16:39.021Z,32.80
2022-12-20T23:22:41.089Z,29.88
2022-12-20T23:28:45.118Z,36.13
2022-12-20T23:34:47.177Z,33.40
2022-12-20T23:40:49.085Z,34.80
2022-12-20T23:46:51.167Z,36.85
2022-12-20T23:52:53.119Z,38.45
2022-12-20T23:58:55.962Z,38.25
